createdAt,value
2019-03-01T00:01:19.586Z,18.30
2019-03-01T00:03:51.500Z,14.07
2019-03-01T00:06:31.738Z,21.77
2019-03-01T00:09:29.244Z,18.93
2019-03-01T00:12:03.767Z,18.27
2019-03-01T00:15:02.846Z,22.93
2019-03-01T00:17:40.041Z,15.40
2019-03-01T00:20:32.547Z,17.93
2019-03-01T00:23:06.791Z,12.80
2019-03-01T00:25:41.267Z,17.10
2019-03-01T00:28:12.800Z,14.73
2019-03-01T00:31:04.264Z,23.83
2019-03-01T00:33:52.342Z,11.40
2019-03-01T00:36:26.464Z,14.47
2019-03-01T00:39:16.042Z,13.90
2019-03-01T00:41:56.487Z,17.33
2019-03-01T00:44:44.706Z,16.57
2019-03-01T00:47:14.098Z,16.50
2019-03-01T00:49:42.929Z,18.17
2019-03-01T00:52:11.718Z,13.03
2019-03-01T00:54:40.396Z,13.47
2019-03-01T00:57:08.946Z,14.67
2019-03-01T00:59:37.625Z,12.03
2019-03-01T01:02:06.252Z,14.37
2019-03-01T01:04:34.785Z,14.00
2019-03-01T01:07:03.666Z,11.40
2019-03-01T01:09:32.147Z,11.23
2019-03-01T01:12:00.707Z,11.80
2019-03-01T01:14:29.214Z,14.00
2019-03-01T01:16:57.666Z,10.83
2019-03-01T01:19:26.142Z,15.70
2019-03-01T01:21:54.975Z,9.07
2019-03-01T01:24:23.590Z,8.80
2019-03-01T01:26:52.127Z,15.33
2019-03-01T01:29:20.654Z,9.83
2019-03-01T01:31:49.274Z,13.60
2019-03-01T01:34:17.807Z,8.43
2019-03-01T01:36:46.350Z,13.13
2019-03-01T01:39:15.154Z,13.00
2019-03-01T01:41:43.630Z,9.83
2019-03-01T01:44:12.166Z,9.00
2019-03-01T01:46:40.690Z,14.77
2019-03-01T01:49:09.230Z,12.87
2019-03-01T01:51:37.678Z,15.00
2019-03-01T01:54:06.302Z,12.77
2019-03-01T01:56:34.890Z,13.07
2019-03-01T01:59:03.431Z,15.90
2019-03-01T02:01:32.055Z,13.23
2019-03-01T02:04:00.503Z,14.83
2019-03-01T02:06:29.047Z,17.00
2019-03-01T02:08:57.497Z,10.30
2019-03-01T02:11:26.111Z,15.07
2019-03-01T02:13:54.918Z,14.83
2019-03-01T02:16:23.391Z,11.67
2019-03-01T02:18:57.712Z,12.80
2019-03-01T02:21:22.040Z,14.73
2019-03-01T02:23:50.491Z,13.00
2019-03-01T02:26:19.010Z,9.93
2019-03-01T02:28:47.487Z,9.83
2019-03-01T02:31:16.275Z,7.00
2019-03-01T02:33:44.825Z,12.10
2019-03-01T02:36:13.347Z,12.10
2019-03-01T02:38:41.823Z,10.37
2019-03-01T02:41:10.348Z,10.90
2019-03-01T02:43:38.896Z,15.00
2019-03-01T02:46:07.418Z,13.40
2019-03-01T02:48:35.885Z,7.47
2019-03-01T02:51:04.474Z,11.10
2019-03-01T02:53:32.948Z,10.30
2019-03-01T02:56:01.396Z,10.97
2019-03-01T02:58:29.939Z,9.13
2019-03-01T03:00:58.410Z,10.20
2019-03-01T03:03:26.987Z,11.80
2019-03-01T03:05:57.164Z,8.60
2019-03-01T03:08:25.912Z,11.90
2019-03-01T03:10:54.465Z,8.53
2019-03-01T03:13:22.992Z,14.70
2019-03-01T03:15:53.239Z,6.50
2019-03-01T03:18:21.758Z,8.83
2019-03-01T03:20:50.301Z,5.77
2019-03-01T03:23:19.059Z,9.13
2019-03-01T03:25:47.536Z,15.07
2019-03-01T03:28:15.980Z,7.37
2019-03-01T03:30:44.538Z,10.23
2019-03-01T03:33:13.061Z,8.13
2019-03-01T03:35:41.584Z,8.37
2019-03-01T03:38:10.131Z,12.20
2019-03-01T03:40:38.601Z,7.80
2019-03-01T03:43:07.260Z,8.90
2019-03-01T03:45:35.788Z,6.80
2019-03-01T03:48:04.457Z,7.10
2019-03-01T03:50:33.000Z,6.80
2019-03-01T03:53:01.543Z,11.53
2019-03-01T03:55:30.130Z,13.33
2019-03-01T03:57:58.744Z,11.93
2019-03-01T04:00:27.626Z,9.80
2019-03-01T04:02:56.157Z,8.10
2019-03-01T04:05:24.674Z,7.30
2019-03-01T04:07:53.221Z,7.43
2019-03-01T04:10:21.739Z,9.67
2019-03-01T04:12:50.218Z,6.33
2019-03-01T04:15:18.799Z,9.37
2019-03-01T04:17:47.243Z,6.47
2019-03-01T04:20:19.374Z,9.03
2019-03-01T04:22:47.895Z,12.57
2019-03-01T04:25:16.431Z,14.17
2019-03-01T04:27:44.879Z,8.17
2019-03-01T04:30:15.579Z,8.93
2019-03-01T04:32:45.128Z,12.87
2019-03-01T04:35:14.710Z,10.13
2019-03-01T04:37:43.227Z,9.00
2019-03-01T04:40:13.642Z,8.87
2019-03-01T04:42:42.264Z,22.23
2019-03-01T04:45:13.467Z,12.27
2019-03-01T04:47:42.017Z,12.43
2019-03-01T04:50:11.998Z,12.27
2019-03-01T04:52:40.820Z,11.03
2019-03-01T04:55:12.083Z,13.63
2019-03-01T04:57:40.629Z,17.17
2019-03-01T05:00:17.455Z,13.60
2019-03-01T05:02:46.069Z,16.77
2019-03-01T05:05:15.031Z,15.13
2019-03-01T05:07:43.495Z,15.07
2019-03-01T05:10:13.482Z,15.20
2019-03-01T05:12:42.551Z,12.07
2019-03-01T05:15:14.665Z,13.47
2019-03-01T05:17:44.209Z,14.43
2019-03-01T05:20:13.111Z,18.67
2019-03-01T05:22:41.570Z,19.27
2019-03-01T05:25:11.090Z,13.23
2019-03-01T05:27:39.686Z,13.40
2019-03-01T05:30:17.079Z,15.10
2019-03-01T05:32:45.781Z,19.77
2019-03-01T05:35:15.070Z,14.10
2019-03-01T05:37:43.520Z,15.77
2019-03-01T05:40:16.085Z,13.73
2019-03-01T05:42:44.615Z,16.10
2019-03-01T05:45:19.434Z,13.50
2019-03-01T05:47:48.027Z,12.60
2019-03-01T05:50:16.715Z,12.20
2019-03-01T05:52:45.235Z,11.17
2019-03-01T05:55:14.024Z,10.23
2019-03-01T05:58:20.366Z,22.43
2019-03-01T06:00:50.055Z,10.73
2019-03-01T06:03:27.761Z,17.30
2019-03-01T06:05:56.653Z,11.60
2019-03-01T06:08:49.534Z,12.63
2019-03-01T06:11:39.283Z,13.97
2019-03-01T06:14:30.793Z,10.93
2019-03-01T06:17:14.175Z,14.30
2019-03-01T06:19:45.710Z,14.13
2019-03-01T06:22:29.543Z,16.37
2019-03-01T06:25:06.863Z,10.80
2019-03-01T06:27:41.379Z,168.67
2019-03-01T06:30:27.895Z,12.37
2019-03-01T06:33:11.607Z,7.93
2019-03-01T06:35:46.074Z,10.57
2019-03-01T06:38:51.016Z,8.17
2019-03-01T06:41:30.296Z,9.00
2019-03-01T06:44:29.671Z,13.70
2019-03-01T06:47:20.726Z,8.90
2019-03-01T06:49:59.896Z,10.23
2019-03-01T06:52:28.699Z,11.30
2019-03-01T06:54:57.171Z,8.57
2019-03-01T06:57:25.691Z,8.50
2019-03-01T06:59:54.468Z,8.50
2019-03-01T07:02:36.683Z,9.63
2019-03-01T07:05:05.648Z,11.97
2019-03-01T07:07:34.123Z,9.47
2019-03-01T07:10:02.572Z,11.53
2019-03-01T07:12:31.117Z,9.50
2019-03-01T07:14:59.883Z,9.47
2019-03-01T07:17:28.356Z,8.13
2019-03-01T07:19:56.807Z,10.90
2019-03-01T07:22:25.631Z,12.00
2019-03-01T07:24:54.421Z,9.30
2019-03-01T07:27:22.964Z,8.40
2019-03-01T07:29:51.412Z,8.23
2019-03-01T07:32:19.935Z,9.27
2019-03-01T07:34:48.402Z,8.13
2019-03-01T07:37:17.128Z,10.57
2019-03-01T07:39:45.602Z,9.40
2019-03-01T07:42:14.418Z,7.73
2019-03-01T07:44:42.891Z,6.77
2019-03-01T07:47:11.675Z,5.80
2019-03-01T07:49:40.147Z,7.87
2019-03-01T07:52:08.663Z,7.13
2019-03-01T07:54:37.428Z,7.23
2019-03-01T07:57:06.211Z,5.83
2019-03-01T07:59:38.433Z,5.50
2019-03-01T08:02:05.902Z,5.03
2019-03-01T08:04:34.622Z,5.80
2019-03-01T08:07:03.103Z,6.43
2019-03-01T08:09:31.630Z,3.93
2019-03-01T08:12:00.166Z,4.13
2019-03-01T08:14:31.552Z,3.50
2019-03-01T08:16:59.112Z,4.23
2019-03-01T08:19:27.635Z,5.10
2019-03-01T08:21:56.182Z,4.40
2019-03-01T08:24:24.703Z,4.80
2019-03-01T08:26:53.250Z,4.17
2019-03-01T08:29:21.695Z,3.60
2019-03-01T08:31:52.836Z,4.43
2019-03-01T08:34:20.332Z,3.93
2019-03-01T08:36:48.786Z,4.23
2019-03-01T08:39:17.568Z,4.13
2019-03-01T08:41:46.111Z,4.20
2019-03-01T08:44:14.559Z,7.33
2019-03-01T08:46:45.666Z,3.13
2019-03-01T08:49:13.295Z,2.87
2019-03-01T08:51:41.743Z,3.60
2019-03-01T08:54:10.223Z,2.97
2019-03-01T08:56:38.730Z,3.33
2019-03-01T08:59:07.199Z,3.60
2019-03-01T09:01:35.651Z,3.60
2019-03-01T09:04:14.212Z,3.90
2019-03-01T09:06:43.184Z,3.20
2019-03-01T09:09:11.718Z,3.47
2019-03-01T09:11:41.780Z,3.70
2019-03-01T09:14:10.691Z,3.40
2019-03-01T09:16:41.077Z,3.43
2019-03-01T09:19:09.982Z,4.20
2019-03-01T09:21:39.514Z,6.20
2019-03-01T09:24:08.483Z,4.00
2019-03-01T09:26:36.971Z,11.10
2019-03-01T09:29:05.554Z,10.70
2019-03-01T09:31:34.030Z,5.30
2019-03-01T09:34:02.483Z,5.07
2019-03-01T09:36:32.595Z,6.97
2019-03-01T09:39:01.046Z,5.03
2019-03-01T09:41:29.595Z,5.67
2019-03-01T09:43:59.630Z,5.87
2019-03-01T09:46:28.353Z,5.77
2019-03-01T09:48:56.971Z,5.60
2019-03-01T09:51:25.520Z,5.80
2019-03-01T09:53:53.974Z,6.00
2019-03-01T09:56:24.253Z,5.87
2019-03-01T09:58:53.015Z,5.67
2019-03-01T10:01:22.059Z,5.67
2019-03-01T10:03:51.227Z,6.50
2019-03-01T10:06:19.711Z,5.73
2019-03-01T10:08:48.226Z,6.20
2019-03-01T10:11:16.681Z,5.83
2019-03-01T10:13:45.256Z,9.43
2019-03-01T10:16:13.891Z,5.83
2019-03-01T10:18:42.366Z,6.17
2019-03-01T10:21:10.818Z,23.80
2019-03-01T10:23:39.527Z,9.00
2019-03-01T10:26:07.999Z,6.70
2019-03-01T10:28:36.443Z,6.20
2019-03-01T10:31:05.155Z,5.60
2019-03-01T10:33:33.743Z,7.13
2019-03-01T10:36:02.603Z,5.57
2019-03-01T10:38:31.395Z,5.33
2019-03-01T10:41:00.033Z,8.43
2019-03-01T10:43:28.479Z,5.93
2019-03-01T10:45:57.090Z,6.50
2019-03-01T10:48:27.426Z,6.27
2019-03-01T10:50:55.983Z,5.77
2019-03-01T10:53:24.739Z,6.00
2019-03-01T10:55:53.217Z,6.43
2019-03-01T10:58:21.663Z,6.50
2019-03-01T11:00:50.207Z,9.90
2019-03-01T11:03:18.726Z,6.97
2019-03-01T11:05:47.199Z,5.50
2019-03-01T11:08:15.935Z,5.87
2019-03-01T11:10:44.382Z,5.10
2019-03-01T11:13:15.296Z,5.40
2019-03-01T11:15:43.819Z,5.50
2019-03-01T11:18:12.755Z,5.40
2019-03-01T11:20:41.274Z,7.27
2019-03-01T11:23:10.103Z,6.70
2019-03-01T11:25:38.559Z,31.73
2019-03-01T11:28:07.370Z,6.90
2019-03-01T11:30:37.164Z,5.80
2019-03-01T11:33:06.549Z,5.33
2019-03-01T11:35:35.213Z,5.20
2019-03-01T11:38:03.730Z,5.37
2019-03-01T11:40:34.499Z,4.20
2019-03-01T11:43:03.168Z,4.13
2019-03-01T11:45:31.942Z,4.37
2019-03-01T11:48:00.588Z,3.87
2019-03-01T11:50:29.543Z,4.53
2019-03-01T11:52:58.242Z,3.80
2019-03-01T11:55:26.847Z,4.50
2019-03-01T11:57:55.367Z,3.77
2019-03-01T12:00:25.211Z,4.27
2019-03-01T12:02:54.028Z,4.07
2019-03-01T12:05:22.701Z,3.47
2019-03-01T12:07:51.290Z,2.70
2019-03-01T12:10:25.515Z,2.67
2019-03-01T12:12:54.040Z,2.93
2019-03-01T12:15:22.581Z,2.60
2019-03-01T12:17:51.115Z,2.93
2019-03-01T12:20:24.491Z,2.73
2019-03-01T12:22:53.211Z,3.00
2019-03-01T12:25:21.823Z,3.53
2019-03-01T12:27:50.270Z,3.33
2019-03-01T12:30:20.783Z,4.37
2019-03-01T12:32:49.303Z,4.37
2019-03-01T12:35:17.852Z,3.77
2019-03-01T12:37:46.514Z,3.40
2019-03-01T12:40:20.536Z,4.20
2019-03-01T12:42:48.982Z,4.50
2019-03-01T12:45:17.740Z,3.80
2019-03-01T12:47:46.736Z,4.10
2019-03-01T12:50:15.707Z,3.47
2019-03-01T12:52:44.317Z,2.97
2019-03-01T12:55:30.072Z,2.93
2019-03-01T12:57:58.624Z,3.30
2019-03-01T13:00:38.270Z,4.10
2019-03-01T13:03:09.240Z,3.80
2019-03-01T13:05:36.991Z,4.13
2019-03-01T13:08:05.678Z,3.50
2019-03-01T13:10:39.836Z,3.60
2019-03-01T13:13:08.337Z,4.03
2019-03-01T13:15:37.423Z,3.93
2019-03-01T13:18:05.957Z,3.70
2019-03-01T13:20:37.195Z,3.53
2019-03-01T13:23:06.265Z,3.67
2019-03-01T13:25:35.079Z,3.53
2019-03-01T13:28:03.743Z,3.83
2019-03-01T13:30:35.474Z,3.30
2019-03-01T13:33:03.656Z,4.03
2019-03-01T13:35:32.228Z,4.10
2019-03-01T13:38:00.751Z,4.30
2019-03-01T13:40:29.294Z,4.60
2019-03-01T13:42:57.754Z,7.20
2019-03-01T13:45:26.675Z,4.67
2019-03-01T13:47:55.194Z,5.50
2019-03-01T13:50:23.789Z,5.67
2019-03-01T13:52:52.612Z,6.30
2019-03-01T13:55:23.822Z,6.40
2019-03-01T13:57:51.668Z,6.40
2019-03-01T14:00:22.235Z,7.60
2019-03-01T14:02:51.051Z,6.57
2019-03-01T14:05:19.729Z,6.70
2019-03-01T14:07:55.543Z,6.00
2019-03-01T14:10:25.135Z,6.97
2019-03-01T14:12:53.687Z,7.00
2019-03-01T14:15:22.204Z,6.00
2019-03-01T14:17:51.098Z,6.87
2019-03-01T14:20:22.890Z,6.73
2019-03-01T14:22:51.344Z,6.30
2019-03-01T14:25:19.894Z,5.63
2019-03-01T14:27:48.482Z,7.70
2019-03-01T14:30:30.014Z,5.37
2019-03-01T14:32:58.450Z,6.20
2019-03-01T14:35:27.347Z,5.90
2019-03-01T14:37:55.957Z,6.17
2019-03-01T14:40:24.552Z,5.40
2019-03-01T14:42:53.391Z,5.00
2019-03-01T14:45:33.574Z,5.57
2019-03-01T14:48:05.171Z,5.40
2019-03-01T14:50:33.606Z,5.77
2019-03-01T14:53:02.464Z,5.77
2019-03-01T14:55:43.510Z,58.13
2019-03-01T14:58:19.132Z,5.43
2019-03-01T15:00:51.335Z,4.90
2019-03-01T15:03:37.545Z,5.20
2019-03-01T15:06:06.735Z,4.40
2019-03-01T15:08:35.729Z,4.37
2019-03-01T15:11:08.143Z,4.60
2019-03-01T15:13:37.364Z,4.27
2019-03-01T15:16:06.434Z,4.20
2019-03-01T15:18:35.775Z,4.20
2019-03-01T15:21:05.191Z,5.00
2019-03-01T15:23:33.642Z,5.23
2019-03-01T15:26:02.097Z,15.47
2019-03-01T15:28:30.651Z,6.60
2019-03-01T15:30:59.123Z,7.20
2019-03-01T15:33:27.566Z,6.67
2019-03-01T15:35:56.025Z,6.70
2019-03-01T15:38:27.589Z,5.80
2019-03-01T15:40:54.762Z,4.93
2019-03-01T15:43:23.210Z,5.63
2019-03-01T15:45:51.967Z,5.60
2019-03-01T15:48:20.751Z,5.50
2019-03-01T15:50:49.199Z,5.90
2019-03-01T15:53:17.752Z,5.53
2019-03-01T15:55:46.204Z,5.23
2019-03-01T15:58:14.681Z,5.57
2019-03-01T16:00:43.273Z,7.23
2019-03-01T16:03:11.914Z,6.97
2019-03-01T16:05:40.460Z,6.30
2019-03-01T16:08:09.262Z,12.70
2019-03-01T16:10:37.985Z,8.57
2019-03-01T16:13:08.334Z,8.10
2019-03-01T16:15:38.815Z,8.17
2019-03-01T16:18:07.016Z,8.83
2019-03-01T16:20:35.571Z,9.90
2019-03-01T16:23:04.157Z,10.47
2019-03-01T16:25:32.644Z,20.23
2019-03-01T16:28:01.098Z,11.50
2019-03-01T16:30:29.646Z,10.63
2019-03-01T16:32:58.095Z,11.83
2019-03-01T16:35:26.915Z,13.13
2019-03-01T16:37:57.907Z,13.70
2019-03-01T16:40:27.211Z,19.00
2019-03-01T16:42:55.662Z,12.03
2019-03-01T16:45:24.527Z,13.10
2019-03-01T16:47:53.425Z,16.80
2019-03-01T16:50:21.979Z,14.57
2019-03-01T16:52:50.499Z,19.10
2019-03-01T16:55:27.783Z,19.13
2019-03-01T16:58:06.240Z,19.03
2019-03-01T17:00:26.958Z,18.90
2019-03-01T17:03:01.371Z,19.67
2019-03-01T17:05:29.830Z,24.33
2019-03-01T17:07:59.658Z,40.47
2019-03-01T17:10:30.264Z,33.60
2019-03-01T17:12:59.146Z,32.30
2019-03-01T17:15:28.126Z,34.90
2019-03-01T17:17:56.683Z,38.17
2019-03-01T17:20:25.210Z,35.50
2019-03-01T17:22:53.740Z,33.97
2019-03-01T17:25:23.374Z,34.53
2019-03-01T17:27:52.824Z,35.57
2019-03-01T17:30:27.364Z,40.53
2019-03-01T17:32:55.823Z,39.63
2019-03-01T17:35:24.302Z,38.87
2019-03-01T17:37:52.762Z,47.57
2019-03-01T17:40:21.321Z,50.53
2019-03-01T17:42:49.919Z,54.20
2019-03-01T17:45:22.236Z,60.53
2019-03-01T17:47:51.559Z,63.17
2019-03-01T17:50:20.187Z,60.53
2019-03-01T17:52:49.059Z,63.63
2019-03-01T17:55:24.220Z,64.70
2019-03-01T17:57:52.627Z,72.07
2019-03-01T18:00:26.539Z,67.93
2019-03-01T18:02:55.201Z,70.77
2019-03-01T18:05:23.832Z,65.80
2019-03-01T18:07:52.379Z,71.03
2019-03-01T18:10:21.227Z,78.70
2019-03-01T18:12:53.071Z,65.60
2019-03-01T18:15:20.211Z,76.37
2019-03-01T18:17:48.769Z,70.80
2019-03-01T18:20:17.611Z,68.60
2019-03-01T18:22:46.095Z,71.77
2019-03-01T18:25:16.187Z,76.53
2019-03-01T18:27:44.635Z,72.07
2019-03-01T18:30:21.851Z,75.30
2019-03-01T18:32:50.372Z,79.93
2019-03-01T18:35:19.059Z,75.37
2019-03-01T18:37:47.507Z,76.80
2019-03-01T18:40:16.828Z,71.37
2019-03-01T18:42:46.082Z,75.23
2019-03-01T18:45:20.531Z,68.57
2019-03-01T18:47:49.359Z,70.93
2019-03-01T18:50:20.895Z,70.53
2019-03-01T18:52:49.657Z,71.77
2019-03-01T18:55:20.007Z,73.60
2019-03-01T18:57:48.623Z,69.50
2019-03-01T19:00:20.286Z,68.37
2019-03-01T19:02:48.767Z,65.83
2019-03-01T19:05:17.218Z,65.50
2019-03-01T19:07:45.703Z,63.80
2019-03-01T19:10:17.262Z,70.50
2019-03-01T19:12:48.605Z,65.27
2019-03-01T19:15:17.279Z,63.57
2019-03-01T19:17:46.665Z,64.67
2019-03-01T19:20:23.430Z,61.37
2019-03-01T19:22:52.243Z,64.60
2019-03-01T19:25:21.751Z,55.63
2019-03-01T19:27:51.819Z,55.27
2019-03-01T19:30:22.911Z,56.23
2019-03-01T19:32:51.462Z,57.10
2019-03-01T19:35:20.288Z,51.33
2019-03-01T19:37:49.680Z,57.20
2019-03-01T19:40:22.215Z,59.07
2019-03-01T19:42:51.030Z,56.03
2019-03-01T19:45:20.019Z,58.67
2019-03-01T19:47:48.639Z,58.63
2019-03-01T19:50:25.013Z,59.50
2019-03-01T19:52:52.479Z,56.67
2019-03-01T19:55:20.942Z,59.17
2019-03-01T19:57:49.495Z,58.83
2019-03-01T20:00:23.619Z,60.53
2019-03-01T20:02:52.159Z,59.90
2019-03-01T20:05:23.046Z,61.60
2019-03-01T20:07:51.821Z,63.00
2019-03-01T20:10:22.003Z,60.47
2019-03-01T20:12:50.519Z,64.30
2019-03-01T20:15:23.646Z,70.97
2019-03-01T20:17:52.795Z,79.30
2019-03-01T20:20:22.914Z,125.10
2019-03-01T20:22:54.091Z,96.27
2019-03-01T20:25:21.738Z,93.13
2019-03-01T20:27:50.182Z,92.47
2019-03-01T20:30:28.792Z,107.80
2019-03-01T20:32:54.082Z,96.83
2019-03-01T20:35:23.174Z,87.83
2019-03-01T20:37:51.649Z,84.83
2019-03-01T20:40:22.776Z,90.50
2019-03-01T20:42:51.071Z,90.13
2019-03-01T20:45:31.654Z,99.37
2019-03-01T20:48:00.190Z,97.03
2019-03-01T20:50:28.707Z,94.57
2019-03-01T20:52:57.426Z,101.27
2019-03-01T20:55:26.199Z,95.27
2019-03-01T20:57:54.779Z,89.27
2019-03-01T21:00:26.134Z,89.10
2019-03-01T21:02:54.783Z,100.23
2019-03-01T21:05:25.109Z,85.77
2019-03-01T21:07:54.036Z,88.17
2019-03-01T21:10:24.634Z,85.00
2019-03-01T21:12:53.174Z,79.00
2019-03-01T21:15:21.927Z,78.27
2019-03-01T21:17:52.976Z,91.57
2019-03-01T21:20:21.071Z,80.00
2019-03-01T21:22:49.610Z,81.63
2019-03-01T21:25:25.186Z,83.27
2019-03-01T21:27:53.814Z,81.07
2019-03-01T21:30:25.202Z,86.20
2019-03-01T21:32:53.678Z,78.77
2019-03-01T21:35:22.305Z,76.80
2019-03-01T21:37:51.847Z,88.30
2019-03-01T21:40:20.514Z,84.03
2019-03-01T21:42:49.066Z,79.83
2019-03-01T21:45:22.645Z,86.57
2019-03-01T21:47:51.264Z,88.67
2019-03-01T21:50:20.106Z,81.87
2019-03-01T21:52:48.632Z,88.40
2019-03-01T21:55:25.034Z,79.43
2019-03-01T21:57:53.356Z,84.70
2019-03-01T22:00:25.310Z,78.30
2019-03-01T22:02:54.441Z,82.57
2019-03-01T22:05:23.275Z,81.97
2019-03-01T22:07:52.063Z,84.83
2019-03-01T22:10:20.676Z,81.30
2019-03-01T22:12:49.194Z,75.90
2019-03-01T22:15:28.660Z,75.97
2019-03-01T22:17:57.400Z,77.80
2019-03-01T22:20:25.935Z,80.60
2019-03-01T22:22:54.390Z,79.80
2019-03-01T22:25:22.980Z,80.50
2019-03-01T22:27:51.527Z,83.33
2019-03-01T22:30:25.855Z,82.67
2019-03-01T22:32:54.331Z,79.33
2019-03-01T22:35:23.192Z,81.80
2019-03-01T22:37:51.735Z,84.07
2019-03-01T22:40:20.335Z,84.03
2019-03-01T22:42:49.882Z,77.40
2019-03-01T22:45:19.823Z,77.57
2019-03-01T22:47:48.274Z,80.50
2019-03-01T22:50:17.990Z,85.33
2019-03-01T22:52:46.438Z,87.63
2019-03-01T22:55:17.127Z,83.70
2019-03-01T22:57:45.579Z,76.87
2019-03-01T23:00:27.726Z,76.80
2019-03-01T23:02:56.539Z,84.07
2019-03-01T23:05:25.028Z,81.57
2019-03-01T23:07:56.830Z,84.10
2019-03-01T23:10:24.110Z,73.63
2019-03-01T23:12:52.560Z,88.30
2019-03-01T23:15:21.038Z,64.60
2019-03-01T23:17:49.498Z,70.97
2019-03-01T23:20:17.987Z,65.00
2019-03-01T23:22:46.906Z,58.77
2019-03-01T23:25:15.634Z,56.00
2019-03-01T23:27:44.121Z,63.73
2019-03-01T23:30:12.643Z,54.40
2019-03-01T23:32:41.129Z,59.93
2019-03-01T23:35:09.730Z,50.03
2019-03-01T23:37:38.831Z,51.67
2019-03-01T23:40:08.646Z,51.13
2019-03-01T23:42:37.278Z,53.47
2019-03-01T23:45:13.797Z,48.60
2019-03-01T23:47:40.668Z,49.50
2019-03-01T23:50:12.458Z,53.80
2019-03-01T23:52:41.177Z,50.23
2019-03-01T23:55:09.715Z,46.90
2019-03-01T23:57:41.105Z,49.10
